sensor_id;sensor_type;location;lat;lon;timestamp;pressure;altitude;pressure_sealevel;temperature;humidity
11339;BME280;5724;42.684;23.252;2023-04-16T00:00:29;93832.06;;;10.52;63.51
11339;BME280;5724;42.684;23.252;2023-04-16T00:02:55;93828.47;;;10.48;64.05
11339;BME280;5724;42.684;23.252;2023-04-16T00:05:20;93841.47;;;10.28;66.27
11339;BME280;5724;42.684;23.252;2023-04-16T00:07:46;93839.16;;;10.30;65.92
11339;BME280;5724;42.684;23.252;2023-04-16T00:10:12;93843.66;;;10.19;66.36
11339;BME280;5724;42.684;23.252;2023-04-16T00:12:38;93832.69;;;10.15;67.05
11339;BME280;5724;42.684;23.252;2023-04-16T00:15:03;93833.84;;;10.14;67.29
11339;BME280;5724;42.684;23.252;2023-04-16T00:17:29;93834.19;;;10.13;67.16
11339;BME280;5724;42.684;23.252;2023-04-16T00:19:55;93827.66;;;9.91;67.61
11339;BME280;5724;42.684;23.252;2023-04-16T00:22:20;93820.53;;;9.60;68.20
11339;BME280;5724;42.684;23.252;2023-04-16T00:24:46;93830.72;;;9.40;67.55
11339;BME280;5724;42.684;23.252;2023-04-16T00:27:11;93831.78;;;9.12;67.03
11339;BME280;5724;42.684;23.252;2023-04-16T00:29:37;93826.94;;;9.02;68.82
11339;BME280;5724;42.684;23.252;2023-04-16T00:32:02;93832.25;;;8.95;69.76
11339;BME280;5724;42.684;23.252;2023-04-16T00:34:27;93829.75;;;8.86;69.13
11339;BME280;5724;42.684;23.252;2023-04-16T00:36:53;93831.22;;;8.80;69.62
11339;BME280;5724;42.684;23.252;2023-04-16T00:39:18;93822.03;;;8.88;69.45
11339;BME280;5724;42.684;23.252;2023-04-16T00:41:44;93829.16;;;8.97;69.21
11339;BME280;5724;42.684;23.252;2023-04-16T00:44:10;93822.94;;;8.96;68.62
11339;BME280;5724;42.684;23.252;2023-04-16T00:46:36;93822.53;;;8.75;68.86
11339;BME280;5724;42.684;23.252;2023-04-16T00:49:02;93818.38;;;8.81;68.27
11339;BME280;5724;42.684;23.252;2023-04-16T00:51:28;93825.09;;;8.87;67.73
11339;BME280;5724;42.684;23.252;2023-04-16T00:53:54;93802.63;;;8.71;67.84
11339;BME280;5724;42.684;23.252;2023-04-16T00:56:20;93819.53;;;8.80;67.74
11339;BME280;5724;42.684;23.252;2023-04-16T00:58:48;93813.50;;;8.71;66.49
11339;BME280;5724;42.684;23.252;2023-04-16T01:01:13;93820.94;;;8.74;64.66
11339;BME280;5724;42.684;23.252;2023-04-16T01:03:42;93815.78;;;8.88;64.63
11339;BME280;5724;42.684;23.252;2023-04-16T01:06:08;93815.09;;;8.72;65.43
11339;BME280;5724;42.684;23.252;2023-04-16T01:08:35;93811.72;;;8.78;66.81
11339;BME280;5724;42.684;23.252;2023-04-16T01:11:00;93813.28;;;8.79;67.77
11339;BME280;5724;42.684;23.252;2023-04-16T01:13:26;93811.34;;;8.80;67.42
11339;BME280;5724;42.684;23.252;2023-04-16T01:15:51;93813.50;;;8.90;66.51
11339;BME280;5724;42.684;23.252;2023-04-16T01:18:19;93814.31;;;8.94;66.61
11339;BME280;5724;42.684;23.252;2023-04-16T01:20:45;93796.34;;;8.89;67.71
11339;BME280;5724;42.684;23.252;2023-04-16T01:23:11;93817.38;;;8.89;69.37
11339;BME280;5724;42.684;23.252;2023-04-16T01:25:37;93816.13;;;8.86;69.27
11339;BME280;5724;42.684;23.252;2023-04-16T01:28:03;93810.25;;;8.84;70.24
11339;BME280;5724;42.684;23.252;2023-04-16T01:30:29;93817.00;;;8.91;69.78
11339;BME280;5724;42.684;23.252;2023-04-16T01:32:55;93814.91;;;8.84;69.82
11339;BME280;5724;42.684;23.252;2023-04-16T01:35:22;93798.53;;;8.80;70.36
11339;BME280;5724;42.684;23.252;2023-04-16T01:37:49;93811.34;;;8.80;70.62
11339;BME280;5724;42.684;23.252;2023-04-16T01:40:14;93812.06;;;8.77;70.70
11339;BME280;5724;42.684;23.252;2023-04-16T01:42:40;93816.06;;;8.83;70.68
11339;BME280;5724;42.684;23.252;2023-04-16T01:45:06;93808.69;;;8.83;70.86
11339;BME280;5724;42.684;23.252;2023-04-16T01:47:31;93803.09;;;8.76;71.05
11339;BME280;5724;42.684;23.252;2023-04-16T01:49:58;93803.97;;;8.80;70.84
11339;BME280;5724;42.684;23.252;2023-04-16T01:52:24;93795.44;;;8.82;70.44
11339;BME280;5724;42.684;23.252;2023-04-16T01:54:49;93788.63;;;8.72;70.60
11339;BME280;5724;42.684;23.252;2023-04-16T01:57:15;93798.53;;;8.80;69.98
11339;BME280;5724;42.684;23.252;2023-04-16T01:59:40;93787.19;;;8.78;69.96
11339;BME280;5724;42.684;23.252;2023-04-16T02:02:08;93793.91;;;8.84;69.49
11339;BME280;5724;42.684;23.252;2023-04-16T02:04:38;93789.63;;;8.83;69.45
11339;BME280;5724;42.684;23.252;2023-04-16T02:07:04;93776.97;;;8.52;70.67
11339;BME280;5724;42.684;23.252;2023-04-16T02:09:30;93779.06;;;8.59;71.19
11339;BME280;5724;42.684;23.252;2023-04-16T02:11:58;93793.09;;;8.61;71.68
11339;BME280;5724;42.684;23.252;2023-04-16T02:14:23;93793.78;;;8.58;71.90
11339;BME280;5724;42.684;23.252;2023-04-16T02:16:50;93790.28;;;8.57;72.13
11339;BME280;5724;42.684;23.252;2023-04-16T02:19:16;93787.22;;;8.59;72.10
11339;BME280;5724;42.684;23.252;2023-04-16T02:21:42;93782.41;;;8.52;72.62
11339;BME280;5724;42.684;23.252;2023-04-16T02:24:07;93784.19;;;8.45;73.10
11339;BME280;5724;42.684;23.252;2023-04-16T02:26:33;93778.41;;;8.46;73.53
11339;BME280;5724;42.684;23.252;2023-04-16T02:28:58;93783.56;;;8.51;73.63
11339;BME280;5724;42.684;23.252;2023-04-16T02:31:24;93783.34;;;8.41;74.10
11339;BME280;5724;42.684;23.252;2023-04-16T02:33:50;93789.13;;;8.39;74.21
11339;BME280;5724;42.684;23.252;2023-04-16T02:36:15;93779.13;;;8.43;74.34
11339;BME280;5724;42.684;23.252;2023-04-16T02:38:40;93778.09;;;8.32;74.36
11339;BME280;5724;42.684;23.252;2023-04-16T02:41:06;93784.31;;;8.32;74.23
11339;BME280;5724;42.684;23.252;2023-04-16T02:43:31;93781.50;;;8.29;74.17
11339;BME280;5724;42.684;23.252;2023-04-16T02:45:57;93782.56;;;8.40;74.03
11339;BME280;5724;42.684;23.252;2023-04-16T02:48:23;93777.22;;;8.28;73.74
11339;BME280;5724;42.684;23.252;2023-04-16T02:50:49;93767.78;;;8.22;73.72
11339;BME280;5724;42.684;23.252;2023-04-16T02:53:15;93777.47;;;8.39;73.22
11339;BME280;5724;42.684;23.252;2023-04-16T02:55:40;93768.50;;;8.38;72.71
11339;BME280;5724;42.684;23.252;2023-04-16T02:58:06;93777.69;;;8.49;72.47
11339;BME280;5724;42.684;23.252;2023-04-16T03:00:31;93779.28;;;8.50;72.06
11339;BME280;5724;42.684;23.252;2023-04-16T03:02:57;93774.03;;;8.42;73.52
11339;BME280;5724;42.684;23.252;2023-04-16T03:05:22;93774.06;;;8.26;74.01
11339;BME280;5724;42.684;23.252;2023-04-16T03:07:47;93774.09;;;8.45;73.10
11339;BME280;5724;42.684;23.252;2023-04-16T03:10:15;93766.44;;;8.51;72.90
11339;BME280;5724;42.684;23.252;2023-04-16T03:12:41;93767.50;;;8.46;72.90
11339;BME280;5724;42.684;23.252;2023-04-16T03:15:06;93779.59;;;8.49;72.39
11339;BME280;5724;42.684;23.252;2023-04-16T03:17:32;93785.19;;;8.56;72.02
11339;BME280;5724;42.684;23.252;2023-04-16T03:19:57;93786.13;;;8.64;72.13
11339;BME280;5724;42.684;23.252;2023-04-16T03:22:23;93777.22;;;8.67;71.53
11339;BME280;5724;42.684;23.252;2023-04-16T03:24:49;93790.63;;;8.75;71.66
11339;BME280;5724;42.684;23.252;2023-04-16T03:27:15;93789.09;;;8.78;71.72
11339;BME280;5724;42.684;23.252;2023-04-16T03:29:40;93789.06;;;8.74;72.15
11339;BME280;5724;42.684;23.252;2023-04-16T03:32:06;93792.41;;;8.68;73.18
11339;BME280;5724;42.684;23.252;2023-04-16T03:34:31;93790.94;;;8.70;72.12
11339;BME280;5724;42.684;23.252;2023-04-16T03:36:57;93795.59;;;8.70;72.05
11339;BME280;5724;42.684;23.252;2023-04-16T03:39:22;93799.47;;;8.69;72.34
11339;BME280;5724;42.684;23.252;2023-04-16T03:41:48;93799.03;;;8.67;73.19
11339;BME280;5724;42.684;23.252;2023-04-16T03:44:13;93798.59;;;8.65;73.28
11339;BME280;5724;42.684;23.252;2023-04-16T03:46:38;93796.59;;;8.62;73.59
11339;BME280;5724;42.684;23.252;2023-04-16T03:49:04;93799.03;;;8.47;72.21
11339;BME280;5724;42.684;23.252;2023-04-16T03:51:30;93801.06;;;8.50;72.20
11339;BME280;5724;42.684;23.252;2023-04-16T03:53:56;93798.75;;;8.52;71.63
11339;BME280;5724;42.684;23.252;2023-04-16T03:56:21;93804.19;;;8.52;70.96
11339;BME280;5724;42.684;23.252;2023-04-16T03:58:47;93798.50;;;8.22;69.33
11339;BME280;5724;42.684;23.252;2023-04-16T04:01:12;93802.47;;;8.44;67.50
11339;BME280;5724;42.684;23.252;2023-04-16T04:03:37;93792.06;;;8.30;68.05
11339;BME280;5724;42.684;23.252;2023-04-16T04:06:09;93794.56;;;8.39;68.43
11339;BME280;5724;42.684;23.252;2023-04-16T04:08:34;93803.63;;;8.08;66.24
11339;BME280;5724;42.684;23.252;2023-04-16T04:11:00;93797.50;;;8.11;67.41
11339;BME280;5724;42.684;23.252;2023-04-16T04:13:25;93796.41;;;8.16;67.65
11339;BME280;5724;42.684;23.252;2023-04-16T04:15:51;93794.69;;;8.27;69.22
11339;BME280;5724;42.684;23.252;2023-04-16T04:18:16;93808.56;;;8.38;69.58
11339;BME280;5724;42.684;23.252;2023-04-16T04:20:43;93803.75;;;8.31;71.18
11339;BME280;5724;42.684;23.252;2023-04-16T04:23:08;93815.44;;;8.51;71.14
11339;BME280;5724;42.684;23.252;2023-04-16T04:25:34;93815.00;;;8.49;71.21
11339;BME280;5724;42.684;23.252;2023-04-16T04:28:00;93822.31;;;8.64;71.18
11339;BME280;5724;42.684;23.252;2023-04-16T04:30:25;93821.00;;;8.77;70.33
11339;BME280;5724;42.684;23.252;2023-04-16T04:32:51;93826.13;;;8.79;68.58
11339;BME280;5724;42.684;23.252;2023-04-16T04:35:16;93821.25;;;8.88;68.82
11339;BME280;5724;42.684;23.252;2023-04-16T04:37:42;93832.06;;;8.84;67.24
11339;BME280;5724;42.684;23.252;2023-04-16T04:40:07;93829.53;;;8.76;67.08
11339;BME280;5724;42.684;23.252;2023-04-16T04:45:03;93837.00;;;8.98;66.07
11339;BME280;5724;42.684;23.252;2023-04-16T04:47:29;93824.94;;;8.99;66.11
11339;BME280;5724;42.684;23.252;2023-04-16T04:49:54;93826.94;;;9.02;65.93
11339;BME280;5724;42.684;23.252;2023-04-16T04:52:20;93836.50;;;9.15;65.80
11339;BME280;5724;42.684;23.252;2023-04-16T04:54:45;93829.50;;;9.14;65.88
11339;BME280;5724;42.684;23.252;2023-04-16T04:57:11;93834.34;;;9.25;65.97
11339;BME280;5724;42.684;23.252;2023-04-16T04:59:36;93832.50;;;9.29;65.49
11339;BME280;5724;42.684;23.252;2023-04-16T05:02:02;93832.16;;;9.34;65.21
11339;BME280;5724;42.684;23.252;2023-04-16T05:04:28;93836.38;;;9.28;66.17
11339;BME280;5724;42.684;23.252;2023-04-16T05:06:54;93829.03;;;9.32;66.91
11339;BME280;5724;42.684;23.252;2023-04-16T05:09:19;93829.16;;;9.39;67.39
11339;BME280;5724;42.684;23.252;2023-04-16T05:11:45;93835.75;;;9.38;68.81
11339;BME280;5724;42.684;23.252;2023-04-16T05:14:10;93828.28;;;9.35;70.65
11339;BME280;5724;42.684;23.252;2023-04-16T05:16:36;93829.88;;;9.36;70.92
11339;BME280;5724;42.684;23.252;2023-04-16T05:19:02;93837.75;;;9.41;69.91
11339;BME280;5724;42.684;23.252;2023-04-16T05:21:28;93834.25;;;9.40;69.78
11339;BME280;5724;42.684;23.252;2023-04-16T05:23:53;93840.28;;;9.53;68.98
11339;BME280;5724;42.684;23.252;2023-04-16T05:26:19;93838.72;;;9.52;69.03
11339;BME280;5724;42.684;23.252;2023-04-16T05:28:45;93843.88;;;9.57;69.71
11339;BME280;5724;42.684;23.252;2023-04-16T05:31:10;93836.50;;;9.58;69.75
11339;BME280;5724;42.684;23.252;2023-04-16T05:33:36;93835.88;;;9.68;68.75
11339;BME280;5724;42.684;23.252;2023-04-16T05:36:01;93828.72;;;9.60;67.39
11339;BME280;5724;42.684;23.252;2023-04-16T05:38:27;93840.41;;;9.60;67.46
11339;BME280;5724;42.684;23.252;2023-04-16T05:40:52;93817.09;;;9.40;65.56
11339;BME280;5724;42.684;23.252;2023-04-16T05:43:18;93831.94;;;9.42;64.84
11339;BME280;5724;42.684;23.252;2023-04-16T05:45:43;93835.31;;;9.36;65.25
11339;BME280;5724;42.684;23.252;2023-04-16T05:48:09;93839.03;;;9.47;64.42
11339;BME280;5724;42.684;23.252;2023-04-16T05:50:35;93845.88;;;9.60;63.73
11339;BME280;5724;42.684;23.252;2023-04-16T05:53:03;93848.44;;;9.50;63.26
11339;BME280;5724;42.684;23.252;2023-04-16T05:55:30;93845.03;;;9.56;63.71
11339;BME280;5724;42.684;23.252;2023-04-16T05:57:55;93840.84;;;9.62;63.95
11339;BME280;5724;42.684;23.252;2023-04-16T06:00:21;93827.94;;;9.59;64.27
11339;BME280;5724;42.684;23.252;2023-04-16T06:02:46;93827.72;;;9.71;63.62
11339;BME280;5724;42.684;23.252;2023-04-16T06:05:12;93831.75;;;9.78;63.78
11339;BME280;5724;42.684;23.252;2023-04-16T06:07:37;93831.94;;;9.65;63.87
11339;BME280;5724;42.684;23.252;2023-04-16T06:10:03;93830.78;;;9.66;64.59
11339;BME280;5724;42.684;23.252;2023-04-16T06:12:29;93826.16;;;9.70;65.53
11339;BME280;5724;42.684;23.252;2023-04-16T06:14:55;93832.47;;;9.52;63.73
11339;BME280;5724;42.684;23.252;2023-04-16T06:17:20;93839.22;;;9.58;64.12
11339;BME280;5724;42.684;23.252;2023-04-16T06:19:47;93839.31;;;9.42;64.65
11339;BME280;5724;42.684;23.252;2023-04-16T06:22:12;93828.78;;;9.17;64.92
11339;BME280;5724;42.684;23.252;2023-04-16T06:24:38;93839.22;;;9.58;64.92
11339;BME280;5724;42.684;23.252;2023-04-16T06:27:03;93833.84;;;9.88;64.19
11339;BME280;5724;42.684;23.252;2023-04-16T06:29:29;93837.22;;;10.04;64.81
11339;BME280;5724;42.684;23.252;2023-04-16T06:34:37;93830.97;;;10.30;64.56
11339;BME280;5724;42.684;23.252;2023-04-16T06:37:02;93834.56;;;10.34;64.12
11339;BME280;5724;42.684;23.252;2023-04-16T06:39:28;93832.91;;;10.29;64.71
11339;BME280;5724;42.684;23.252;2023-04-16T06:41:54;93832.59;;;10.65;64.23
11339;BME280;5724;42.684;23.252;2023-04-16T06:44:20;93833.91;;;10.74;63.07
11339;BME280;5724;42.684;23.252;2023-04-16T06:46:45;93822.56;;;10.72;63.05
11339;BME280;5724;42.684;23.252;2023-04-16T06:49:10;93824.19;;;10.80;62.35
11339;BME280;5724;42.684;23.252;2023-04-16T06:51:36;93833.56;;;11.13;61.91
11339;BME280;5724;42.684;23.252;2023-04-16T06:54:02;93832.31;;;11.44;60.45
11339;BME280;5724;42.684;23.252;2023-04-16T06:56:27;93837.53;;;11.60;60.29
11339;BME280;5724;42.684;23.252;2023-04-16T06:58:53;93830.50;;;11.59;59.64
11339;BME280;5724;42.684;23.252;2023-04-16T07:01:21;93824.34;;;11.72;59.58
11339;BME280;5724;42.684;23.252;2023-04-16T07:03:46;93823.56;;;11.68;59.52
11339;BME280;5724;42.684;23.252;2023-04-16T07:06:12;93827.00;;;11.62;59.93
11339;BME280;5724;42.684;23.252;2023-04-16T07:08:37;93831.38;;;11.70;60.46
11339;BME280;5724;42.684;23.252;2023-04-16T07:11:03;93829.22;;;11.93;59.81
11339;BME280;5724;42.684;23.252;2023-04-16T07:13:29;93834.00;;;12.03;59.73
11339;BME280;5724;42.684;23.252;2023-04-16T07:15:54;93835.63;;;12.12;60.74
11339;BME280;5724;42.684;23.252;2023-04-16T07:18:20;93831.63;;;11.98;59.88
11339;BME280;5724;42.684;23.252;2023-04-16T07:20:45;93837.25;;;12.16;61.07
11339;BME280;5724;42.684;23.252;2023-04-16T07:23:11;93833.50;;;12.46;61.45
11339;BME280;5724;42.684;23.252;2023-04-16T07:25:37;93833.63;;;12.67;59.52
11339;BME280;5724;42.684;23.252;2023-04-16T07:28:02;93836.03;;;12.83;57.77
11339;BME280;5724;42.684;23.252;2023-04-16T07:30:28;93833.75;;;12.99;58.51
11339;BME280;5724;42.684;23.252;2023-04-16T07:33:01;93829.78;;;12.86;56.73
11339;BME280;5724;42.684;23.252;2023-04-16T07:35:28;93826.63;;;12.77;56.89
11339;BME280;5724;42.684;23.252;2023-04-16T07:37:53;93830.88;;;12.71;56.93
11339;BME280;5724;42.684;23.252;2023-04-16T07:40:19;93833.63;;;12.71;56.68
11339;BME280;5724;42.684;23.252;2023-04-16T07:42:44;93835.56;;;12.67;57.03
11339;BME280;5724;42.684;23.252;2023-04-16T07:45:10;93831.41;;;12.94;56.50
11339;BME280;5724;42.684;23.252;2023-04-16T07:47:35;93836.91;;;13.08;55.06
11339;BME280;5724;42.684;23.252;2023-04-16T07:50:01;93836.09;;;12.97;55.36
11339;BME280;5724;42.684;23.252;2023-04-16T07:52:26;93830.19;;;12.88;55.45
11339;BME280;5724;42.684;23.252;2023-04-16T07:54:52;93826.66;;;12.84;55.63
11339;BME280;5724;42.684;23.252;2023-04-16T07:57:17;93821.97;;;12.88;55.79
11339;BME280;5724;42.684;23.252;2023-04-16T07:59:42;93832.25;;;13.12;55.39
11339;BME280;5724;42.684;23.252;2023-04-16T08:02:13;93822.50;;;13.29;55.20
11339;BME280;5724;42.684;23.252;2023-04-16T08:04:41;93830.66;;;13.08;56.04
11339;BME280;5724;42.684;23.252;2023-04-16T08:07:06;93829.50;;;13.16;55.36
11339;BME280;5724;42.684;23.252;2023-04-16T08:09:32;93826.44;;;13.39;55.45
11339;BME280;5724;42.684;23.252;2023-04-16T08:11:59;93826.47;;;13.50;54.77
11339;BME280;5724;42.684;23.252;2023-04-16T08:14:25;93830.41;;;13.70;54.65
11339;BME280;5724;42.684;23.252;2023-04-16T08:16:50;93829.63;;;13.98;53.13
11339;BME280;5724;42.684;23.252;2023-04-16T08:19:16;93822.56;;;14.15;52.74
11339;BME280;5724;42.684;23.252;2023-04-16T08:21:41;93824.91;;;14.45;52.58
11339;BME280;5724;42.684;23.252;2023-04-16T08:24:07;93816.66;;;14.52;52.06
11339;BME280;5724;42.684;23.252;2023-04-16T08:26:33;93814.25;;;14.72;50.83
11339;BME280;5724;42.684;23.252;2023-04-16T08:28:58;93827.13;;;15.00;49.27
11339;BME280;5724;42.684;23.252;2023-04-16T08:31:24;93816.97;;;14.82;50.11
11339;BME280;5724;42.684;23.252;2023-04-16T08:33:49;93822.53;;;14.54;50.70
11339;BME280;5724;42.684;23.252;2023-04-16T08:36:15;93813.09;;;14.44;51.33
11339;BME280;5724;42.684;23.252;2023-04-16T08:38:40;93804.84;;;14.69;50.54
11339;BME280;5724;42.684;23.252;2023-04-16T08:41:08;93804.81;;;14.66;50.96
11339;BME280;5724;42.684;23.252;2023-04-16T08:43:37;93797.34;;;14.77;49.76
11339;BME280;5724;42.684;23.252;2023-04-16T08:46:06;93804.78;;;14.76;50.37
11339;BME280;5724;42.684;23.252;2023-04-16T08:48:33;93807.44;;;15.01;50.30
11339;BME280;5724;42.684;23.252;2023-04-16T08:51:00;93795.34;;;14.81;50.81
11339;BME280;5724;42.684;23.252;2023-04-16T08:53:32;93798.09;;;14.84;51.23
11339;BME280;5724;42.684;23.252;2023-04-16T08:56:02;93799.50;;;15.21;49.44
11339;BME280;5724;42.684;23.252;2023-04-16T08:58:30;93792.03;;;15.22;48.57
11339;BME280;5724;42.684;23.252;2023-04-16T09:00:59;93792.03;;;15.25;48.38
11339;BME280;5724;42.684;23.252;2023-04-16T09:03:28;93782.53;;;15.30;48.43
11339;BME280;5724;42.684;23.252;2023-04-16T09:05:54;93785.25;;;15.33;48.48
11339;BME280;5724;42.684;23.252;2023-04-16T09:08:21;93775.94;;;15.16;49.48
11339;BME280;5724;42.684;23.252;2023-04-16T09:10:47;93778.69;;;15.13;49.62
11339;BME280;5724;42.684;23.252;2023-04-16T09:13:13;93783.50;;;14.95;50.93
11339;BME280;5724;42.684;23.252;2023-04-16T09:15:41;93797.63;;;15.07;51.13
11339;BME280;5724;42.684;23.252;2023-04-16T09:18:07;93795.91;;;15.31;50.41
11339;BME280;5724;42.684;23.252;2023-04-16T09:20:33;93792.00;;;15.29;49.52
11339;BME280;5724;42.684;23.252;2023-04-16T09:22:58;93795.94;;;15.28;48.53
11339;BME280;5724;42.684;23.252;2023-04-16T09:25:24;93793.94;;;15.32;47.62
11339;BME280;5724;42.684;23.252;2023-04-16T09:27:50;93787.69;;;15.24;47.57
11339;BME280;5724;42.684;23.252;2023-04-16T09:30:24;93784.91;;;15.28;47.63
11339;BME280;5724;42.684;23.252;2023-04-16T09:32:51;93785.31;;;15.23;47.27
11339;BME280;5724;42.684;23.252;2023-04-16T09:35:18;93770.84;;;15.11;48.76
11339;BME280;5724;42.684;23.252;2023-04-16T09:37:54;93793.59;;;15.26;48.76
11339;BME280;5724;42.684;23.252;2023-04-16T09:40:24;93774.66;;;15.35;48.98
11339;BME280;5724;42.684;23.252;2023-04-16T09:42:51;93769.88;;;15.43;48.00
11339;BME280;5724;42.684;23.252;2023-04-16T09:45:16;93784.41;;;15.43;50.11
11339;BME280;5724;42.684;23.252;2023-04-16T09:47:44;93782.84;;;15.42;49.44
11339;BME280;5724;42.684;23.252;2023-04-16T09:50:14;93785.34;;;15.82;47.56
11339;BME280;5724;42.684;23.252;2023-04-16T09:52:42;93782.41;;;16.07;46.60
11339;BME280;5724;42.684;23.252;2023-04-16T09:55:07;93777.22;;;16.16;44.27
11339;BME280;5724;42.684;23.252;2023-04-16T09:57:36;93782.06;;;16.01;43.88
11339;BME280;5724;42.684;23.252;2023-04-16T10:00:06;93781.69;;;15.40;45.49
11339;BME280;5724;42.684;23.252;2023-04-16T10:02:34;93776.28;;;15.26;45.51
11339;BME280;5724;42.684;23.252;2023-04-16T10:05:03;93756.47;;;15.49;45.87
11339;BME280;5724;42.684;23.252;2023-04-16T10:07:32;93768.03;;;15.85;44.80
11339;BME280;5724;42.684;23.252;2023-04-16T10:09:58;93767.97;;;15.92;44.97
11339;BME280;5724;42.684;23.252;2023-04-16T10:15:02;93754.03;;;16.10;45.23
11339;BME280;5724;42.684;23.252;2023-04-16T10:17:29;93752.84;;;16.11;44.14
11339;BME280;5724;42.684;23.252;2023-04-16T10:19:56;93747.00;;;16.05;45.49
11339;BME280;5724;42.684;23.252;2023-04-16T10:22:22;93749.28;;;16.14;45.08
11339;BME280;5724;42.684;23.252;2023-04-16T10:24:48;93747.84;;;15.98;46.41
11339;BME280;5724;42.684;23.252;2023-04-16T10:27:14;93734.00;;;16.06;45.13
11339;BME280;5724;42.684;23.252;2023-04-16T10:29:42;93743.25;;;16.26;45.09
11339;BME280;5724;42.684;23.252;2023-04-16T10:32:08;93735.81;;;16.23;44.99
11339;BME280;5724;42.684;23.252;2023-04-16T10:34:34;93738.69;;;16.09;44.71
11339;BME280;5724;42.684;23.252;2023-04-16T10:37:00;93732.06;;;16.02;44.91
11339;BME280;5724;42.684;23.252;2023-04-16T10:39:28;93730.47;;;16.01;45.35
11339;BME280;5724;42.684;23.252;2023-04-16T10:42:06;93730.41;;;16.12;44.76
11339;BME280;5724;42.684;23.252;2023-04-16T10:44:33;93735.34;;;16.28;44.29
11339;BME280;5724;42.684;23.252;2023-04-16T10:46:58;93730.16;;;16.68;43.45
11339;BME280;5724;42.684;23.252;2023-04-16T10:49:25;93738.41;;;16.75;43.78
11339;BME280;5724;42.684;23.252;2023-04-16T10:51:57;93736.09;;;16.70;43.34
11339;BME280;5724;42.684;23.252;2023-04-16T10:54:28;93733.25;;;16.77;43.45
11339;BME280;5724;42.684;23.252;2023-04-16T10:56:58;93730.91;;;16.38;44.26
11339;BME280;5724;42.684;23.252;2023-04-16T10:59:24;93716.63;;;16.09;45.21
11339;BME280;5724;42.684;23.252;2023-04-16T11:01:52;93728.00;;;16.14;45.19
11339;BME280;5724;42.684;23.252;2023-04-16T11:12:37;93719.59;;;16.63;43.50
11339;BME280;5724;42.684;23.252;2023-04-16T11:15:14;93706.13;;;16.72;44.27
11339;BME280;5724;42.684;23.252;2023-04-16T11:20:19;93705.72;;;17.31;42.91
11339;BME280;5724;42.684;23.252;2023-04-16T11:22:49;93692.16;;;17.40;43.00
11339;BME280;5724;42.684;23.252;2023-04-16T11:27:45;93696.44;;;17.71;43.29
11339;BME280;5724;42.684;23.252;2023-04-16T11:30:11;93691.13;;;17.57;42.95
11339;BME280;5724;42.684;23.252;2023-04-16T11:32:37;93686.19;;;17.68;42.73
11339;BME280;5724;42.684;23.252;2023-04-16T11:35:15;93690.94;;;17.68;42.85
11339;BME280;5724;42.684;23.252;2023-04-16T11:37:41;93697.19;;;17.45;43.88
11339;BME280;5724;42.684;23.252;2023-04-16T11:40:07;93681.03;;;17.47;43.02
11339;BME280;5724;42.684;23.252;2023-04-16T11:42:40;93673.63;;;17.40;42.75
11339;BME280;5724;42.684;23.252;2023-04-16T11:45:07;93682.94;;;17.50;42.94
11339;BME280;5724;42.684;23.252;2023-04-16T11:47:43;93672.59;;;17.54;42.51
11339;BME280;5724;42.684;23.252;2023-04-16T11:52:48;93664.13;;;17.65;43.21
11339;BME280;5724;42.684;23.252;2023-04-16T11:55:14;93668.16;;;17.60;43.78
11339;BME280;5724;42.684;23.252;2023-04-16T11:57:39;93663.72;;;17.43;44.68
11339;BME280;5724;42.684;23.252;2023-04-16T12:00:05;93650.00;;;17.36;44.07
11339;BME280;5724;42.684;23.252;2023-04-16T12:02:42;93661.53;;;17.31;44.74
11339;BME280;5724;42.684;23.252;2023-04-16T12:08:06;93652.44;;;17.57;42.87
11339;BME280;5724;42.684;23.252;2023-04-16T12:10:37;93646.69;;;17.48;43.85
11339;BME280;5724;42.684;23.252;2023-04-16T12:13:16;93640.13;;;17.62;43.74
11339;BME280;5724;42.684;23.252;2023-04-16T12:15:49;93616.94;;;17.56;44.52
11339;BME280;5724;42.684;23.252;2023-04-16T12:18:19;93637.50;;;17.78;43.83
11339;BME280;5724;42.684;23.252;2023-04-16T12:20:46;93629.84;;;17.62;43.61
11339;BME280;5724;42.684;23.252;2023-04-16T12:23:32;93636.00;;;17.97;43.46
11339;BME280;5724;42.684;23.252;2023-04-16T12:25:58;93635.59;;;18.18;43.22
11339;BME280;5724;42.684;23.252;2023-04-16T12:28:35;93633.56;;;17.99;43.10
11339;BME280;5724;42.684;23.252;2023-04-16T12:31:03;93642.22;;;18.01;42.54
11339;BME280;5724;42.684;23.252;2023-04-16T12:33:28;93625.28;;;17.76;43.10
11339;BME280;5724;42.684;23.252;2023-04-16T12:35:54;93628.84;;;17.53;43.49
11339;BME280;5724;42.684;23.252;2023-04-16T12:38:19;93625.78;;;17.70;43.48
11339;BME280;5724;42.684;23.252;2023-04-16T12:40:45;93624.63;;;17.68;43.16
11339;BME280;5724;42.684;23.252;2023-04-16T12:43:11;93617.38;;;17.78;43.18
11339;BME280;5724;42.684;23.252;2023-04-16T12:45:38;93626.69;;;17.87;42.96
11339;BME280;5724;42.684;23.252;2023-04-16T12:48:04;93623.72;;;17.28;43.88
11339;BME280;5724;42.684;23.252;2023-04-16T12:50:29;93619.38;;;17.03;44.07
11339;BME280;5724;42.684;23.252;2023-04-16T12:52:56;93616.44;;;16.87;43.95
11339;BME280;5724;42.684;23.252;2023-04-16T12:55:21;93616.00;;;16.92;44.38
11339;BME280;5724;42.684;23.252;2023-04-16T12:57:47;93614.16;;;17.09;44.19
11339;BME280;5724;42.684;23.252;2023-04-16T13:00:13;93611.94;;;17.00;44.75
11339;BME280;5724;42.684;23.252;2023-04-16T13:02:39;93611.19;;;16.96;45.50
11339;BME280;5724;42.684;23.252;2023-04-16T13:05:05;93614.88;;;16.86;45.27
11339;BME280;5724;42.684;23.252;2023-04-16T13:07:31;93609.47;;;16.79;44.68
11339;BME280;5724;42.684;23.252;2023-04-16T13:09:59;93613.69;;;16.56;47.02
11339;BME280;5724;42.684;23.252;2023-04-16T13:12:24;93606.66;;;15.87;51.27
11339;BME280;5724;42.684;23.252;2023-04-16T13:14:51;93608.50;;;15.11;55.45
11339;BME280;5724;42.684;23.252;2023-04-16T13:17:17;93609.16;;;14.74;57.96
11339;BME280;5724;42.684;23.252;2023-04-16T13:19:42;93616.81;;;14.42;60.14
11339;BME280;5724;42.684;23.252;2023-04-16T13:22:08;93614.19;;;14.13;64.00
11339;BME280;5724;42.684;23.252;2023-04-16T13:24:33;93608.88;;;13.45;64.93
11339;BME280;5724;42.684;23.252;2023-04-16T13:26:59;93603.00;;;13.18;67.67